Time;durP1;ratioP1;P1;durP2;ratioP2;P2;SDS_P1;SDS_P2;PMS_P1;PMS_P2;Temp;Humidity;BMP_temperature;BMP_pressure;BME280_temperature;BME280_humidity;BME280_pressure;Samples;Min_cycle;Max_cycle;Signal;HPM_P1;HPM_P2
2023/03/12 00:01:52;;;;;;;;;;;;;;;;;;7387597;19;1845;-66
2023/03/12 00:04:20;;;;;;;;;;;;;;;;;;7377611;19;1745;-66
2023/03/12 00:06:48;;;;;;;;;;;;;;;;;;7374776;19;1846;-66
2023/03/12 00:09:16;;;;;;;;;;;;;;;;;;7370831;19;825;-65
2023/03/12 00:11:45;;;;;;;;;;;;;;;;;;7374471;19;1834;-65
2023/03/12 00:14:13;;;;;;;;;;;;;;;;;;7369743;19;1748;-65
2023/03/12 00:16:41;;;;;;;;;;;;;;;;;;7373787;19;1796;-66
2023/03/12 00:19:09;;;;;;;;;;;;;;;;;;7370847;19;1929;-65
2023/03/12 00:21:37;;;;;;;;;;;;;;;;;;7372052;19;1807;-65
2023/03/12 00:24:06;;;;;;;;;;;;;;;;;;7370176;19;1968;-65
2023/03/12 00:26:34;;;;;;;;;;;;;;;;;;7372127;19;1858;-65
2023/03/12 00:29:02;;;;;;;;;;;;;;;;;;7368733;19;1875;-65
2023/03/12 00:31:31;;;;;;;;;;;;;;;;;;7370977;19;1496;-66
2023/03/12 00:33:59;;;;;;;;;;;;;;;;;;7367409;19;1947;-65
2023/03/12 00:36:27;;;;;;;;;;;;;;;;;;7372263;19;1860;-65
2023/03/12 00:38:56;;;;;;;;;;;;;;;;;;7369270;19;1907;-66
2023/03/12 00:41:24;;;;;;;;;;;;;;;;;;7369108;19;1913;-65
2023/03/12 00:43:52;;;;;;;;;;;;;;;;;;7368081;19;1860;-65
2023/03/12 00:46:20;;;;;;;;;;;;;;;;;;7367088;19;1898;-65
2023/03/12 00:48:48;;;;;;;;;;;;;;;;;;7368460;19;1881;-65
2023/03/12 00:51:16;;;;;;;;;;;;;;;;;;7368246;19;1856;-66
2023/03/12 00:53:45;;;;;;;;;;;;;;;;;;7366075;19;1931;-65
2023/03/12 00:56:13;;;;;;;;;;;;;;;;;;7368892;19;1850;-65
2023/03/12 00:58:41;;;;;;;;;;;;;;;;;;7368602;19;1882;-65
2023/03/12 01:01:09;;;;;;;;;;;;;;;;;;7369278;19;2211;-65
2023/03/12 01:03:37;;;;;;;;;;;;;;;;;;7367643;19;1880;-65
2023/03/12 01:06:06;;;;;;;;;;;;;;;;;;7369851;19;1884;-65
2023/03/12 01:08:34;;;;;;;;;;;;;;;;;;7367587;19;809;-65
2023/03/12 01:11:02;;;;;;;;;;;;;;;;;;7367501;19;1895;-65
2023/03/12 01:13:30;;;;;;;;;;;;;;;;;;7366621;19;1824;-65
2023/03/12 01:15:58;;;;;;;;;;;;;;;;;;7370681;19;2410;-65
2023/03/12 01:18:27;;;;;;;;;;;;;;;;;;7369588;19;1851;-65
2023/03/12 01:20:55;;;;;;;;;;;;;;;;;;7369190;19;1835;-63
2023/03/12 01:23:23;;;;;;;;;;;;;;;;;;7364903;19;1892;-65
2023/03/12 01:25:54;;;;;;;;;;;;;;;;;;7366237;19;1710;-65
2023/03/12 01:28:22;;;;;;;;;;;;;;;;;;7367005;19;786;-65
2023/03/12 01:30:50;;;;;;;;;;;;;;;;;;7368043;19;1870;-65
2023/03/12 01:33:21;;;;;;;;;;;;;;;;;;7364645;19;2147;-66
2023/03/12 01:35:49;;;;;;;;;;;;;;;;;;7367300;19;1907;-65
2023/03/12 01:38:17;;;;;;;;;;;;;;;;;;7369082;19;1846;-65
2023/03/12 01:40:46;;;;;;;;;;;;;;;;;;7367071;19;1769;-65
2023/03/12 01:43:14;;;;;;;;;;;;;;;;;;7366067;19;1871;-65
2023/03/12 01:45:42;;;;;;;;;;;;;;;;;;7368077;19;1844;-65
2023/03/12 01:48:10;;;;;;;;;;;;;;;;;;7369721;19;1858;-65
2023/03/12 01:50:38;;;;;;;;;;;;;;;;;;7367099;19;1854;-65
2023/03/12 01:53:06;;;;;;;;;;;;;;;;;;7366186;19;1887;-66
2023/03/12 01:55:35;;;;;;;;;;;;;;;;;;7365997;19;1823;-65
2023/03/12 01:58:03;;;;;;;;;;;;;;;;;;7367460;19;1970;-66
2023/03/12 02:00:31;;;;;;;;;;;;;;;;;;7365416;19;849;-65
2023/03/12 02:03:00;;;;;;;;;;;;;;;;;;7368598;19;1708;-65
2023/03/12 02:05:31;;;;;;;;;;;;;;;;;;7366184;19;1856;-65
2023/03/12 02:07:59;;;;;;;;;;;;;;;;;;7365835;19;1857;-65
2023/03/12 02:10:27;;;;;;;;;;;;;;;;;;7366325;19;1885;-65
2023/03/12 02:12:55;;;;;;;;;;;;;;;;;;7362671;19;1743;-65
2023/03/12 02:15:23;;;;;;;;;;;;;;;;;;7366889;19;1891;-65
2023/03/12 02:17:53;;;;;;;;;;;;;;;;;;7363656;19;863;-65
2023/03/12 02:20:21;;;;;;;;;;;;;;;;;;7363846;19;1907;-65
2023/03/12 02:22:49;;;;;;;;;;;;;;;;;;7365943;19;1808;-65
2023/03/12 02:25:17;;;;;;;;;;;;;;;;;;7365791;19;1857;-65
2023/03/12 02:27:45;;;;;;;;;;;;;;;;;;7365469;19;877;-65
2023/03/12 02:30:15;;;;;;;;;;;;;;;;;;7366051;19;1924;-65
2023/03/12 02:32:43;;;;;;;;;;;;;;;;;;7365419;19;1759;-65
2023/03/12 02:35:14;;;;;;;;;;;;;;;;;;7364193;19;2124;-65
2023/03/12 02:37:42;;;;;;;;;;;;;;;;;;7367522;19;1843;-65
2023/03/12 02:40:10;;;;;;;;;;;;;;;;;;7364410;19;1879;-65
2023/03/12 02:42:39;;;;;;;;;;;;;;;;;;7365338;19;1829;-66
2023/03/12 02:45:07;;;;;;;;;;;;;;;;;;7367944;19;2194;-65
2023/03/12 02:47:35;;;;;;;;;;;;;;;;;;7367958;19;1590;-65
2023/03/12 02:50:04;;;;;;;;;;;;;;;;;;7365590;19;1814;-65
2023/03/12 02:52:34;;;;;;;;;;;;;;;;;;7363654;19;1346;-66
2023/03/12 02:55:03;;;;;;;;;;;;;;;;;;7369340;19;1820;-65
2023/03/12 02:57:31;;;;;;;;;;;;;;;;;;7363056;19;846;-65
2023/03/12 03:00:00;;;;;;;;;;;;;;;;;;7361895;19;1906;-65
2023/03/12 03:02:28;;;;;;;;;;;;;;;;;;7364817;19;1863;-65
2023/03/12 03:04:56;;;;;;;;;;;;;;;;;;7366961;19;1830;-65
2023/03/12 03:07:24;;;;;;;;;;;;;;;;;;7362267;19;1015;-65
2023/03/12 03:09:53;;;;;;;;;;;;;;;;;;7360788;19;1904;-65
2023/03/12 03:12:21;;;;;;;;;;;;;;;;;;7362644;19;1330;-65
2023/03/12 03:14:49;;;;;;;;;;;;;;;;;;7365965;19;1751;-66
2023/03/12 03:17:17;;;;;;;;;;;;;;;;;;7366721;19;1812;-65
2023/03/12 03:19:46;;;;;;;;;;;;;;;;;;7364138;19;1981;-65
2023/03/12 03:22:14;;;;;;;;;;;;;;;;;;7361843;19;1353;-65
2023/03/12 03:24:42;;;;;;;;;;;;;;;;;;7365682;19;1787;-66
2023/03/12 03:27:10;;;;;;;;;;;;;;;;;;7367658;19;1967;-65
2023/03/12 03:29:38;;;;;;;;;;;;;;;;;;7361352;19;1904;-65
2023/03/12 03:32:06;;;;;;;;;;;;;;;;;;7362260;19;1345;-65
2023/03/12 03:34:35;;;;;;;;;;;;;;;;;;7365292;19;1841;-65
2023/03/12 03:37:03;;;;;;;;;;;;;;;;;;7366142;19;1881;-65
2023/03/12 03:39:33;;;;;;;;;;;;;;;;;;7363438;19;2233;-66
2023/03/12 03:42:01;;;;;;;;;;;;;;;;;;7362220;19;1290;-69
2023/03/12 03:44:32;;;;;;;;;;;;;;;;;;7365771;19;1861;-67
2023/03/12 03:47:01;;;;;;;;;;;;;;;;;;7362392;19;1862;-65
2023/03/12 03:49:29;;;;;;;;;;;;;;;;;;7362532;19;1846;-67
2023/03/12 03:51:57;;;;;;;;;;;;;;;;;;7365256;19;1820;-67
2023/03/12 03:54:32;;;;;;;;;;;;;;;;;;7363913;19;1891;-65
2023/03/12 03:57:01;;;;;;;;;;;;;;;;;;7362357;19;882;-67
2023/03/12 03:59:29;;;;;;;;;;;;;;;;;;7363889;19;1875;-65
2023/03/12 04:02:00;;;;;;;;;;;;;;;;;;7362435;19;1840;-67
2023/03/12 04:04:30;;;;;;;;;;;;;;;;;;7365492;19;1617;-67
2023/03/12 04:06:58;;;;;;;;;;;;;;;;;;7363843;19;1858;-67
2023/03/12 04:09:26;;;;;;;;;;;;;;;;;;7361824;19;1771;-67
2023/03/12 04:11:54;;;;;;;;;;;;;;;;;;7365129;19;1894;-66
2023/03/12 04:14:22;;;;;;;;;;;;;;;;;;7359951;19;1787;-67
2023/03/12 04:16:51;;;;;;;;;;;;;;;;;;7362984;19;1522;-67
2023/03/12 04:19:20;;;;;;;;;;;;;;;;;;7364616;19;1890;-67
2023/03/12 04:21:48;;;;;;;;;;;;;;;;;;7370283;19;2089;-67
2023/03/12 04:24:16;;;;;;;;;;;;;;;;;;7365783;19;1259;-65
2023/03/12 04:26:45;;;;;;;;;;;;;;;;;;7370253;19;1875;-67
2023/03/12 04:29:13;;;;;;;;;;;;;;;;;;7370839;19;1940;-64
2023/03/12 04:31:42;;;;;;;;;;;;;;;;;;7367307;19;1889;-65
2023/03/12 04:34:10;;;;;;;;;;;;;;;;;;7368309;19;1785;-67
2023/03/12 04:36:39;;;;;;;;;;;;;;;;;;7372831;19;1969;-67
2023/03/12 04:39:08;;;;;;;;;;;;;;;;;;7371100;19;2108;-67
2023/03/12 04:41:36;;;;;;;;;;;;;;;;;;7368946;19;809;-65
2023/03/12 04:44:09;;;;;;;;;;;;;;;;;;7368380;19;1484;-65
2023/03/12 04:46:38;;;;;;;;;;;;;;;;;;7367650;19;816;-65
2023/03/12 04:49:06;;;;;;;;;;;;;;;;;;7366609;19;832;-65
2023/03/12 04:51:37;;;;;;;;;;;;;;;;;;7366908;19;894;-65
2023/03/12 04:54:06;;;;;;;;;;;;;;;;;;7364828;19;1357;-65
2023/03/12 04:56:35;;;;;;;;;;;;;;;;;;7369083;19;1672;-65
2023/03/12 04:59:03;;;;;;;;;;;;;;;;;;7365936;19;1844;-65
2023/03/12 05:01:31;;;;;;;;;;;;;;;;;;7369926;19;1901;-64
2023/03/12 05:04:00;;;;;;;;;;;;;;;;;;7364888;19;1885;-65
2023/03/12 05:06:28;;;;;;;;;;;;;;;;;;7370730;19;1946;-65
2023/03/12 05:08:57;;;;;;;;;;;;;;;;;;7369953;19;1893;-65
2023/03/12 05:11:26;;;;;;;;;;;;;;;;;;7368906;19;1882;-65
2023/03/12 05:13:54;;;;;;;;;;;;;;;;;;7365088;19;1901;-65
2023/03/12 05:16:22;;;;;;;;;;;;;;;;;;7367184;19;1907;-65
2023/03/12 05:18:50;;;;;;;;;;;;;;;;;;7366940;19;724;-65
2023/03/12 05:21:18;;;;;;;;;;;;;;;;;;7365331;19;1901;-65
2023/03/12 05:23:47;;;;;;;;;;;;;;;;;;7364740;19;1306;-66
2023/03/12 05:26:15;;;;;;;;;;;;;;;;;;7369134;19;1892;-65
2023/03/12 05:28:44;;;;;;;;;;;;;;;;;;7368489;19;1903;-65
2023/03/12 05:31:12;;;;;;;;;;;;;;;;;;7366791;19;1871;-65
2023/03/12 05:33:40;;;;;;;;;;;;;;;;;;7365452;19;1293;-65
2023/03/12 05:36:09;;;;;;;;;;;;;;;;;;7370367;19;1921;-65
2023/03/12 05:38:37;;;;;;;;;;;;;;;;;;7369460;19;1852;-65
2023/03/12 05:41:05;;;;;;;;;;;;;;;;;;7364194;19;1952;-65
2023/03/12 05:43:36;;;;;;;;;;;;;;;;;;7364508;19;1952;-65
2023/03/12 05:46:04;;;;;;;;;;;;;;;;;;7367395;19;1843;-65
2023/03/12 05:48:34;;;;;;;;;;;;;;;;;;7366224;19;1851;-68
2023/03/12 05:51:03;;;;;;;;;;;;;;;;;;7366697;19;2147;-65
2023/03/12 05:53:33;;;;;;;;;;;;;;;;;;7365849;19;1923;-65
2023/03/12 05:56:02;;;;;;;;;;;;;;;;;;7366341;19;1930;-65
2023/03/12 05:58:30;;;;;;;;;;;;;;;;;;7366931;19;1853;-65
2023/03/12 06:00:58;;;;;;;;;;;;;;;;;;7365515;19;1885;-65
2023/03/12 06:03:26;;;;;;;;;;;;;;;;;;7362790;19;1274;-65
2023/03/12 06:05:56;;;;;;;;;;;;;;;;;;7367498;19;1857;-65
2023/03/12 06:08:24;;;;;;;;;;;;;;;;;;7367993;19;1906;-65
2023/03/12 06:10:53;;;;;;;;;;;;;;;;;;7369234;19;2174;-66
2023/03/12 06:13:22;;;;;;;;;;;;;;;;;;7363201;19;1290;-65
2023/03/12 06:15:51;;;;;;;;;;;;;;;;;;7364958;19;1874;-65
2023/03/12 06:18:19;;;;;;;;;;;;;;;;;;7363894;19;803;-65
2023/03/12 06:20:47;;;;;;;;;;;;;;;;;;7366646;19;1865;-65
2023/03/12 06:23:15;;;;;;;;;;;;;;;;;;7365442;19;1901;-65
2023/03/12 06:25:43;;;;;;;;;;;;;;;;;;7366422;19;2160;-65
2023/03/12 06:28:12;;;;;;;;;;;;;;;;;;7367857;19;1856;-65
2023/03/12 06:30:40;;;;;;;;;;;;;;;;;;7365631;19;1857;-65
2023/03/12 06:33:08;;;;;;;;;;;;;;;;;;7365433;19;1956;-65
2023/03/12 06:35:36;;;;;;;;;;;;;;;;;;7367114;19;2036;-65
2023/03/12 06:38:04;;;;;;;;;;;;;;;;;;7365820;19;1864;-66
2023/03/12 06:40:32;;;;;;;;;;;;;;;;;;7364658;19;1912;-65
2023/03/12 06:43:01;;;;;;;;;;;;;;;;;;7364971;19;1735;-64
2023/03/12 06:45:29;;;;;;;;;;;;;;;;;;7366869;19;2120;-65
2023/03/12 06:47:57;;;;;;;;;;;;;;;;;;7367641;19;1866;-66
2023/03/12 06:50:25;;;;;;;;;;;;;;;;;;7365013;19;807;-65
2023/03/12 06:52:53;;;;;;;;;;;;;;;;;;7367510;19;1882;-65
2023/03/12 06:55:21;;;;;;;;;;;;;;;;;;7366105;19;1849;-65
2023/03/12 06:57:49;;;;;;;;;;;;;;;;;;7366370;19;1809;-65
2023/03/12 07:00:17;;;;;;;;;;;;;;;;;;7365801;19;1924;-65
2023/03/12 07:02:46;;;;;;;;;;;;;;;;;;7365334;19;1668;-65
2023/03/12 07:05:14;;;;;;;;;;;;;;;;;;7363436;19;1868;-65
2023/03/12 07:07:42;;;;;;;;;;;;;;;;;;7361452;19;806;-65
2023/03/12 07:10:10;;;;;;;;;;;;;;;;;;7363394;19;853;-65
2023/03/12 07:12:38;;;;;;;;;;;;;;;;;;7362724;19;1271;-66
2023/03/12 07:15:06;;;;;;;;;;;;;;;;;;7364035;19;862;-66
2023/03/12 07:17:35;;;;;;;;;;;;;;;;;;7363956;19;827;-66
2023/03/12 07:20:03;;;;;;;;;;;;;;;;;;7362873;19;1857;-66
2023/03/12 07:22:31;;;;;;;;;;;;;;;;;;7361900;19;1354;-66
2023/03/12 07:24:59;;;;;;;;;;;;;;;;;;7361596;19;791;-66
2023/03/12 07:27:27;;;;;;;;;;;;;;;;;;7364219;19;847;-66
2023/03/12 07:29:55;;;;;;;;;;;;;;;;;;7363163;19;826;-66
2023/03/12 07:32:23;;;;;;;;;;;;;;;;;;7359920;19;1813;-66
2023/03/12 07:34:52;;;;;;;;;;;;;;;;;;7365982;19;1908;-65
2023/03/12 07:37:20;;;;;;;;;;;;;;;;;;7363724;19;830;-66
2023/03/12 07:39:51;;;;;;;;;;;;;;;;;;7362884;19;1850;-66
2023/03/12 07:42:19;;;;;;;;;;;;;;;;;;7363066;19;1255;-65
2023/03/12 07:44:48;;;;;;;;;;;;;;;;;;7362319;19;806;-66
2023/03/12 07:47:16;;;;;;;;;;;;;;;;;;7363355;19;818;-65
2023/03/12 07:49:44;;;;;;;;;;;;;;;;;;7362166;19;718;-66
2023/03/12 07:52:13;;;;;;;;;;;;;;;;;;7361574;19;1365;-65
2023/03/12 07:54:41;;;;;;;;;;;;;;;;;;7365013;19;873;-65
2023/03/12 07:57:09;;;;;;;;;;;;;;;;;;7369597;19;728;-65
2023/03/12 07:59:37;;;;;;;;;;;;;;;;;;7368350;19;867;-65
2023/03/12 08:02:05;;;;;;;;;;;;;;;;;;7366633;19;1837;-66
2023/03/12 08:04:33;;;;;;;;;;;;;;;;;;7372259;19;1912;-66
2023/03/12 08:07:02;;;;;;;;;;;;;;;;;;7369433;19;873;-67
2023/03/12 08:09:31;;;;;;;;;;;;;;;;;;7368582;19;774;-66
2023/03/12 08:11:59;;;;;;;;;;;;;;;;;;7369883;19;1853;-66
2023/03/12 08:14:30;;;;;;;;;;;;;;;;;;7373276;19;1848;-66
2023/03/12 08:16:58;;;;;;;;;;;;;;;;;;7369542;19;637;-65
2023/03/12 08:19:26;;;;;;;;;;;;;;;;;;7368417;19;846;-65
2023/03/12 08:21:55;;;;;;;;;;;;;;;;;;7365816;19;1886;-65
2023/03/12 08:24:23;;;;;;;;;;;;;;;;;;7365879;19;1396;-65
2023/03/12 08:26:51;;;;;;;;;;;;;;;;;;7368553;19;815;-65
2023/03/12 08:29:19;;;;;;;;;;;;;;;;;;7367516;19;850;-65
2023/03/12 08:31:47;;;;;;;;;;;;;;;;;;7371304;19;2269;-66
2023/03/12 08:34:15;;;;;;;;;;;;;;;;;;7369576;19;1754;-66
2023/03/12 08:36:43;;;;;;;;;;;;;;;;;;7369395;19;834;-66
2023/03/12 08:39:12;;;;;;;;;;;;;;;;;;7367754;19;803;-67
2023/03/12 08:41:40;;;;;;;;;;;;;;;;;;7367125;19;1837;-66
2023/03/12 08:44:08;;;;;;;;;;;;;;;;;;7369762;19;1756;-66
2023/03/12 08:46:36;;;;;;;;;;;;;;;;;;7368239;19;739;-65
2023/03/12 08:49:04;;;;;;;;;;;;;;;;;;7366911;19;866;-67
2023/03/12 08:51:33;;;;;;;;;;;;;;;;;;7369156;19;814;-67
2023/03/12 08:54:01;;;;;;;;;;;;;;;;;;7368439;19;1812;-67
2023/03/12 08:56:29;;;;;;;;;;;;;;;;;;7367562;19;782;-67
2023/03/12 08:58:57;;;;;;;;;;;;;;;;;;7367230;19;848;-67
2023/03/12 09:01:25;;;;;;;;;;;;;;;;;;7369611;19;1983;-67
2023/03/12 09:03:54;;;;;;;;;;;;;;;;;;7369266;19;1851;-66
2023/03/12 09:06:22;;;;;;;;;;;;;;;;;;7365295;19;1899;-65
2023/03/12 09:08:50;;;;;;;;;;;;;;;;;;7366832;19;915;-65
2023/03/12 09:11:18;;;;;;;;;;;;;;;;;;7367678;19;762;-65
2023/03/12 09:13:47;;;;;;;;;;;;;;;;;;7363996;19;1250;-66
2023/03/12 09:16:15;;;;;;;;;;;;;;;;;;7368914;19;1770;-65
2023/03/12 09:18:43;;;;;;;;;;;;;;;;;;7370293;19;1498;-66
2023/03/12 09:21:11;;;;;;;;;;;;;;;;;;7367447;19;1846;-65
2023/03/12 09:23:39;;;;;;;;;;;;;;;;;;7367581;19;1894;-65
2023/03/12 09:26:07;;;;;;;;;;;;;;;;;;7372062;19;1876;-65
2023/03/12 09:28:35;;;;;;;;;;;;;;;;;;7368663;19;1599;-66
2023/03/12 09:31:04;;;;;;;;;;;;;;;;;;7369596;19;2107;-66
2023/03/12 09:33:33;;;;;;;;;;;;;;;;;;7367719;19;2133;-65
2023/03/12 09:36:01;;;;;;;;;;;;;;;;;;7371088;19;1841;-65
2023/03/12 09:38:30;;;;;;;;;;;;;;;;;;7365996;19;863;-65
2023/03/12 09:40:58;;;;;;;;;;;;;;;;;;7366373;19;1857;-65
2023/03/12 09:43:28;;;;;;;;;;;;;;;;;;7364120;19;1282;-66
2023/03/12 09:45:56;;;;;;;;;;;;;;;;;;7367055;19;1870;-66
2023/03/12 09:48:25;;;;;;;;;;;;;;;;;;7366297;19;1883;-66
2023/03/12 09:50:53;;;;;;;;;;;;;;;;;;7370235;19;2105;-66
2023/03/12 09:53:21;;;;;;;;;;;;;;;;;;7368178;19;1853;-67
2023/03/12 09:55:49;;;;;;;;;;;;;;;;;;7366897;19;863;-66
2023/03/12 09:58:17;;;;;;;;;;;;;;;;;;7369956;19;1607;-66
2023/03/12 10:00:45;;;;;;;;;;;;;;;;;;7365944;19;1818;-67
2023/03/12 10:03:14;;;;;;;;;;;;;;;;;;7369370;19;1507;-66
2023/03/12 10:05:42;;;;;;;;;;;;;;;;;;7366733;19;801;-66
2023/03/12 10:08:10;;;;;;;;;;;;;;;;;;7369997;19;1834;-66
2023/03/12 10:10:38;;;;;;;;;;;;;;;;;;7367905;19;1930;-67
2023/03/12 10:13:06;;;;;;;;;;;;;;;;;;7365447;19;1329;-65
2023/03/12 10:15:34;;;;;;;;;;;;;;;;;;7366452;19;814;-65
2023/03/12 10:18:03;;;;;;;;;;;;;;;;;;7367694;19;1707;-65
2023/03/12 10:20:31;;;;;;;;;;;;;;;;;;7365400;19;1845;-66
2023/03/12 10:22:59;;;;;;;;;;;;;;;;;;7363959;19;1282;-66
2023/03/12 10:25:27;;;;;;;;;;;;;;;;;;7366010;19;768;-66
2023/03/12 10:27:55;;;;;;;;;;;;;;;;;;7367785;19;1480;-67
2023/03/12 10:30:24;;;;;;;;;;;;;;;;;;7366465;19;904;-67
2023/03/12 10:32:52;;;;;;;;;;;;;;;;;;7364164;19;1286;-67
2023/03/12 10:35:20;;;;;;;;;;;;;;;;;;7368112;19;1220;-67
2023/03/12 10:37:49;;;;;;;;;;;;;;;;;;7367526;19;1797;-66
2023/03/12 10:40:17;;;;;;;;;;;;;;;;;;7365614;19;829;-66
2023/03/12 10:42:45;;;;;;;;;;;;;;;;;;7362252;19;1824;-67
2023/03/12 10:45:13;;;;;;;;;;;;;;;;;;7367284;19;1830;-67
2023/03/12 10:47:41;;;;;;;;;;;;;;;;;;7367217;19;1858;-65
2023/03/12 10:50:09;;;;;;;;;;;;;;;;;;7364207;19;836;-66
2023/03/12 10:52:37;;;;;;;;;;;;;;;;;;7363182;19;1317;-65
2023/03/12 10:55:06;;;;;;;;;;;;;;;;;;7364135;19;851;-65
2023/03/12 10:57:34;;;;;;;;;;;;;;;;;;7366994;19;1873;-66
2023/03/12 11:00:02;;;;;;;;;;;;;;;;;;7363760;19;805;-67
2023/03/12 11:02:30;;;;;;;;;;;;;;;;;;7361225;19;1861;-67
2023/03/12 11:04:58;;;;;;;;;;;;;;;;;;7364278;19;989;-66
2023/03/12 11:07:27;;;;;;;;;;;;;;;;;;7366678;19;1853;-66
2023/03/12 11:09:55;;;;;;;;;;;;;;;;;;7360921;19;839;-66
2023/03/12 11:12:24;;;;;;;;;;;;;;;;;;7362996;19;1281;-67
2023/03/12 11:14:52;;;;;;;;;;;;;;;;;;7364486;19;739;-67
2023/03/12 11:17:20;;;;;;;;;;;;;;;;;;7364999;19;1808;-66
2023/03/12 11:19:48;;;;;;;;;;;;;;;;;;7361990;19;772;-66
2023/03/12 11:22:16;;;;;;;;;;;;;;;;;;7360584;19;1859;-67
2023/03/12 11:24:44;;;;;;;;;;;;;;;;;;7363865;19;726;-67
2023/03/12 11:27:13;;;;;;;;;;;;;;;;;;7367006;19;1900;-67
2023/03/12 11:29:42;;;;;;;;;;;;;;;;;;7367750;19;1844;-67
2023/03/12 11:32:10;;;;;;;;;;;;;;;;;;7369336;19;1290;-67
2023/03/12 11:34:38;;;;;;;;;;;;;;;;;;7372263;19;1770;-67
2023/03/12 11:37:06;;;;;;;;;;;;;;;;;;7371179;19;947;-67
2023/03/12 11:39:34;;;;;;;;;;;;;;;;;;7370371;19;778;-67
2023/03/12 11:42:02;;;;;;;;;;;;;;;;;;7367259;19;1844;-67
2023/03/12 11:44:31;;;;;;;;;;;;;;;;;;7371764;19;794;-68
2023/03/12 11:46:59;;;;;;;;;;;;;;;;;;7370538;19;764;-67
2023/03/12 11:49:27;;;;;;;;;;;;;;;;;;7369465;19;829;-67
2023/03/12 11:51:55;;;;;;;;;;;;;;;;;;7370181;19;814;-67
2023/03/12 11:54:23;;;;;;;;;;;;;;;;;;7368574;19;1266;-67
2023/03/12 11:56:51;;;;;;;;;;;;;;;;;;7371935;19;814;-67
2023/03/12 11:59:20;;;;;;;;;;;;;;;;;;7372395;19;2221;-66
2023/03/12 12:01:48;;;;;;;;;;;;;;;;;;7375596;19;1863;-67
2023/03/12 12:04:16;;;;;;;;;;;;;;;;;;7371552;19;1759;-67
2023/03/12 12:06:44;;;;;;;;;;;;;;;;;;7375854;19;1465;-68
2023/03/12 12:09:12;;;;;;;;;;;;;;;;;;7371452;19;841;-68
2023/03/12 12:11:41;;;;;;;;;;;;;;;;;;7370581;19;869;-67
2023/03/12 12:14:10;;;;;;;;;;;;;;;;;;7372128;19;1862;-67
2023/03/12 12:16:38;;;;;;;;;;;;;;;;;;7370377;19;833;-66
2023/03/12 12:19:07;;;;;;;;;;;;;;;;;;7373278;19;1901;-67
2023/03/12 12:21:35;;;;;;;;;;;;;;;;;;7368089;19;1837;-66
2023/03/12 12:24:04;;;;;;;;;;;;;;;;;;7367553;19;1286;-67
2023/03/12 12:26:32;;;;;;;;;;;;;;;;;;7367437;19;868;-68
2023/03/12 12:29:00;;;;;;;;;;;;;;;;;;7369640;19;793;-67
2023/03/12 12:31:28;;;;;;;;;;;;;;;;;;7369192;19;803;-66
2023/03/12 12:33:57;;;;;;;;;;;;;;;;;;7369317;19;2227;-65
2023/03/12 12:36:25;;;;;;;;;;;;;;;;;;7372220;19;1667;-64
2023/03/12 12:38:53;;;;;;;;;;;;;;;;;;7368508;19;805;-64
2023/03/12 12:41:21;;;;;;;;;;;;;;;;;;7368476;19;1835;-65
2023/03/12 12:43:50;;;;;;;;;;;;;;;;;;7365961;19;1935;-65
2023/03/12 12:46:18;;;;;;;;;;;;;;;;;;7365991;19;771;-65
2023/03/12 12:48:46;;;;;;;;;;;;;;;;;;7367671;19;794;-65
2023/03/12 12:51:14;;;;;;;;;;;;;;;;;;7372257;19;1709;-66
2023/03/12 12:53:42;;;;;;;;;;;;;;;;;;7366642;19;1282;-65
2023/03/12 12:56:10;;;;;;;;;;;;;;;;;;7368279;19;1498;-66
2023/03/12 12:58:38;;;;;;;;;;;;;;;;;;7367574;19;759;-66
2023/03/12 13:01:08;;;;;;;;;;;;;;;;;;7368736;19;1889;-66
2023/03/12 13:03:36;;;;;;;;;;;;;;;;;;7365294;19;1878;-66
2023/03/12 13:06:04;;;;;;;;;;;;;;;;;;7367784;19;845;-66
2023/03/12 13:08:32;;;;;;;;;;;;;;;;;;7367093;19;759;-66
2023/03/12 13:11:00;;;;;;;;;;;;;;;;;;7368033;19;783;-66
2023/03/12 13:13:28;;;;;;;;;;;;;;;;;;7366829;19;1416;-66
2023/03/12 13:15:57;;;;;;;;;;;;;;;;;;7367365;19;792;-66
2023/03/12 13:18:25;;;;;;;;;;;;;;;;;;7368026;19;859;-66
2023/03/12 13:20:53;;;;;;;;;;;;;;;;;;7367229;19;842;-66
2023/03/12 13:23:21;;;;;;;;;;;;;;;;;;7364715;19;1850;-65
2023/03/12 13:25:49;;;;;;;;;;;;;;;;;;7367401;19;850;-65
2023/03/12 13:28:17;;;;;;;;;;;;;;;;;;7364840;19;871;-64
2023/03/12 13:30:46;;;;;;;;;;;;;;;;;;7371755;19;1814;-64
2023/03/12 13:33:14;;;;;;;;;;;;;;;;;;7365690;19;1293;-65
2023/03/12 13:35:42;;;;;;;;;;;;;;;;;;7367816;19;798;-65
2023/03/12 13:38:11;;;;;;;;;;;;;;;;;;7370221;19;1342;-65
2023/03/12 13:40:39;;;;;;;;;;;;;;;;;;7367772;19;738;-65
2023/03/12 13:43:07;;;;;;;;;;;;;;;;;;7364821;19;1841;-65
2023/03/12 13:45:35;;;;;;;;;;;;;;;;;;7367334;19;814;-66
2023/03/12 13:48:03;;;;;;;;;;;;;;;;;;7368006;19;1842;-64
2023/03/12 13:50:32;;;;;;;;;;;;;;;;;;7366625;19;789;-65
2023/03/12 13:53:00;;;;;;;;;;;;;;;;;;7363921;19;1312;-65
2023/03/12 13:55:28;;;;;;;;;;;;;;;;;;7366912;19;803;-65
2023/03/12 13:57:56;;;;;;;;;;;;;;;;;;7365664;19;1920;-65
2023/03/12 14:00:24;;;;;;;;;;;;;;;;;;7364555;19;794;-66
2023/03/12 14:02:52;;;;;;;;;;;;;;;;;;7364077;19;1854;-66
2023/03/12 14:05:20;;;;;;;;;;;;;;;;;;7366979;19;845;-66
2023/03/12 14:07:49;;;;;;;;;;;;;;;;;;7365342;19;777;-66
2023/03/12 14:10:17;;;;;;;;;;;;;;;;;;7366171;19;762;-66
2023/03/12 14:12:45;;;;;;;;;;;;;;;;;;7365783;19;1290;-67
2023/03/12 14:15:13;;;;;;;;;;;;;;;;;;7365947;19;791;-67
2023/03/12 14:17:41;;;;;;;;;;;;;;;;;;7366025;19;819;-67
2023/03/12 14:20:09;;;;;;;;;;;;;;;;;;7369746;19;1870;-67
2023/03/12 14:22:37;;;;;;;;;;;;;;;;;;7366936;19;1837;-67
2023/03/12 14:25:06;;;;;;;;;;;;;;;;;;7365469;19;2119;-67
2023/03/12 14:27:34;;;;;;;;;;;;;;;;;;7371366;19;809;-66
2023/03/12 14:30:02;;;;;;;;;;;;;;;;;;7365824;19;834;-65
2023/03/12 14:32:30;;;;;;;;;;;;;;;;;;7364424;19;1284;-68
2023/03/12 14:34:58;;;;;;;;;;;;;;;;;;7366081;19;829;-67
2023/03/12 14:37:26;;;;;;;;;;;;;;;;;;7365742;19;823;-66
2023/03/12 14:39:55;;;;;;;;;;;;;;;;;;7364332;19;845;-66
2023/03/12 14:42:25;;;;;;;;;;;;;;;;;;7364869;19;1861;-66
2023/03/12 14:44:53;;;;;;;;;;;;;;;;;;7365947;19;791;-67
2023/03/12 14:47:21;;;;;;;;;;;;;;;;;;7367449;19;1838;-67
2023/03/12 14:49:49;;;;;;;;;;;;;;;;;;7367640;19;2109;-66
2023/03/12 14:52:17;;;;;;;;;;;;;;;;;;7364075;19;1743;-66
2023/03/12 14:54:45;;;;;;;;;;;;;;;;;;7366644;19;1930;-67
2023/03/12 14:57:14;;;;;;;;;;;;;;;;;;7365029;19;819;-67
2023/03/12 14:59:42;;;;;;;;;;;;;;;;;;7364261;19;797;-67
2023/03/12 15:02:10;;;;;;;;;;;;;;;;;;7363881;19;1841;-66
2023/03/12 15:04:38;;;;;;;;;;;;;;;;;;7362227;19;706;-67
2023/03/12 15:07:06;;;;;;;;;;;;;;;;;;7365502;19;879;-67
2023/03/12 15:09:35;;;;;;;;;;;;;;;;;;7362818;19;844;-66
2023/03/12 15:12:03;;;;;;;;;;;;;;;;;;7364858;19;1352;-67
2023/03/12 15:14:31;;;;;;;;;;;;;;;;;;7364036;19;838;-67
2023/03/12 15:16:59;;;;;;;;;;;;;;;;;;7363719;19;763;-67
2023/03/12 15:19:27;;;;;;;;;;;;;;;;;;7365987;19;1839;-66
2023/03/12 15:21:56;;;;;;;;;;;;;;;;;;7365666;19;1627;-66
2023/03/12 15:24:24;;;;;;;;;;;;;;;;;;7360025;19;1294;-66
2023/03/12 15:26:52;;;;;;;;;;;;;;;;;;7363905;19;869;-66
2023/03/12 15:29:25;;;;;;;;;;;;;;;;;;7363477;19;1888;-67
2023/03/12 15:31:53;;;;;;;;;;;;;;;;;;7364464;19;784;-67
2023/03/12 15:34:21;;;;;;;;;;;;;;;;;;7360354;19;1404;-66
2023/03/12 15:36:50;;;;;;;;;;;;;;;;;;7363746;19;795;-67
2023/03/12 15:39:18;;;;;;;;;;;;;;;;;;7361779;19;778;-67
2023/03/12 15:41:47;;;;;;;;;;;;;;;;;;7363540;19;796;-67
2023/03/12 15:44:16;;;;;;;;;;;;;;;;;;7360146;19;1838;-68
2023/03/12 15:46:44;;;;;;;;;;;;;;;;;;7363515;19;890;-67
2023/03/12 15:49:12;;;;;;;;;;;;;;;;;;7362594;19;846;-67
2023/03/12 15:51:40;;;;;;;;;;;;;;;;;;7363154;19;837;-67
2023/03/12 15:54:08;;;;;;;;;;;;;;;;;;7363746;19;1947;-67
2023/03/12 15:56:37;;;;;;;;;;;;;;;;;;7361269;19;862;-70
2023/03/12 15:59:05;;;;;;;;;;;;;;;;;;7364557;19;1850;-67
2023/03/12 16:01:33;;;;;;;;;;;;;;;;;;7362193;19;820;-67
2023/03/12 16:04:01;;;;;;;;;;;;;;;;;;7359864;19;1875;-67
2023/03/12 16:06:30;;;;;;;;;;;;;;;;;;7362939;19;825;-67
2023/03/12 16:08:58;;;;;;;;;;;;;;;;;;7361914;19;735;-66
2023/03/12 16:11:26;;;;;;;;;;;;;;;;;;7361398;19;834;-67
2023/03/12 16:13:54;;;;;;;;;;;;;;;;;;7359505;19;1345;-68
2023/03/12 16:16:22;;;;;;;;;;;;;;;;;;7367262;19;1893;-67
2023/03/12 16:18:50;;;;;;;;;;;;;;;;;;7368609;19;1851;-67
2023/03/12 16:21:18;;;;;;;;;;;;;;;;;;7372545;19;1867;-68
2023/03/12 16:23:47;;;;;;;;;;;;;;;;;;7365969;19;1846;-68
2023/03/12 16:26:15;;;;;;;;;;;;;;;;;;7368695;19;811;-68
2023/03/12 16:28:43;;;;;;;;;;;;;;;;;;7366789;19;857;-67
2023/03/12 16:31:11;;;;;;;;;;;;;;;;;;7369401;19;860;-67
2023/03/12 16:33:39;;;;;;;;;;;;;;;;;;7366089;19;1301;-67
2023/03/12 16:36:07;;;;;;;;;;;;;;;;;;7368596;19;819;-66
2023/03/12 16:38:36;;;;;;;;;;;;;;;;;;7367774;19;814;-66
2023/03/12 16:41:04;;;;;;;;;;;;;;;;;;7367100;19;794;-65
2023/03/12 16:43:32;;;;;;;;;;;;;;;;;;7366579;19;1869;-66
2023/03/12 16:46:00;;;;;;;;;;;;;;;;;;7368527;19;874;-66
2023/03/12 16:48:28;;;;;;;;;;;;;;;;;;7365578;19;807;-65
2023/03/12 16:50:56;;;;;;;;;;;;;;;;;;7367839;19;787;-65
2023/03/12 16:53:24;;;;;;;;;;;;;;;;;;7365834;19;1262;-66
2023/03/12 16:55:53;;;;;;;;;;;;;;;;;;7367734;19;854;-67
2023/03/12 16:58:21;;;;;;;;;;;;;;;;;;7366470;19;791;-68
2023/03/12 17:00:49;;;;;;;;;;;;;;;;;;7369327;19;795;-67
2023/03/12 17:03:17;;;;;;;;;;;;;;;;;;7366753;19;1849;-67
2023/03/12 17:05:45;;;;;;;;;;;;;;;;;;7367716;19;922;-70
2023/03/12 17:08:14;;;;;;;;;;;;;;;;;;7367765;19;770;-68
2023/03/12 17:10:42;;;;;;;;;;;;;;;;;;7368366;19;959;-67
2023/03/12 17:13:10;;;;;;;;;;;;;;;;;;7366726;19;1250;-68
2023/03/12 17:15:38;;;;;;;;;;;;;;;;;;7367742;19;802;-67